Miyako Airport Miyako City JP
ICAO: ROMY
IATA:
Category: Medium
Scheduled Services:

Elevation: 150 ft
TransAlt. 14000 ft.

Airport Communications:
SHIMOJI APP:120.3
TWR:118.2

ROMY Zoom In..

If you have problems with the map follow the link
https://www.worldairports.se/pages/airport.php?
ICAO=ROMY

Runways:

(A) RW 04 length 6562 ft width 148 ft
---- / hdg 42

(B) RW 22 length 6562 ft width 148 ft
ILS 108.90 / hdg 222

Location; ROMY
Day. 18 / Time. 04.00 Zulu
* QNH: 1010
* Temperature: 29° c. 84.2°f.
* Wind from: 220° Speed 13 kn.
Dewpoint: 27° c.
Visibility: 10 km or more.
Clouds: Few 500 ft.
Clouds: Broken 700 ft.
Conditions: Light Rain Showers.

ROMY 180400Z 22013KT 9999 -SHRA FEW005 BKN007 29/27 Q1010


Wind From 220°
Speed 13 kn.

 
 
jpsmedia.com for Web Design worldairports.se 2019   terms of use